aviador You're here:

CYBW Decoded Metar

CALGARY/SPRINGBA in AB, CANADA
Report Time2017-11-18 14:00:00
UTC Time2017-11-18 14:11:24
Flight Rules vfr VFR
Wind240° at 10 kt
W.Decomp.*RWY 26: 8.2 kt HW 5.7 kt LCW
RWY 17: 5.7 kt HW 8.2 kt RCW
W.Rank240° ranks 24
Current wind is above 240° avg. (7.3)
Visibility9999 m
Phenomena:N/A
Clouds:Broken 240 Hf
Expected CloudBase > 2,800 ft AGL from Temp-Dew spread
Ceiling24,000 ft
Temp-4°C (ISA -11)
Dew Point-11°C (59% RH)
AAT-10.7°C
QNH1013 hPa
Density Alt2,621 ft
Elevation3,937 ft
Report Wrong Elevation
Raw Report
CYBW 181400Z AUTO 24010KT 9SM BKN240 M04/M11 A2992 RMK SLP216=

Extra information for CYBW:More info

Metar Taf Metar & Taf Last 4 Metars F.Rules Stats Wind Profile Meteogram Temp Stats Airport Information Weather charts Add Link Nearby VenuesMetar ALERT Operation Metar Decoded Social comments